Time;durP1;ratioP1;P1;durP2;ratioP2;P2;SDS_P1;SDS_P2;PMS_P1;PMS_P2;Temp;Humidity;BMP_temperature;BMP_pressure;BME280_temperature;BME280_humidity;BME280_pressure;Samples;Min_cycle;Max_cycle;Signal;HPM_P1;HPM_P2
2021/11/23 00:01:45;;;;;;;18.02;10.65;;;;;;;;;;5053402;28;20646;-80
2021/11/23 00:04:11;;;;;;;15.80;9.40;;;;;;;;;;5051956;28;20180;-80
2021/11/23 00:06:38;;;;;;;11.77;8.68;;;;;;;;;;5052276;28;20177;-78
2021/11/23 00:09:04;;;;;;;13.38;8.90;;;;;;;;;;5053186;28;20201;-80
2021/11/23 00:11:31;;;;;;;11.75;8.05;;;;;;;;;;5051436;28;20200;-80
2021/11/23 00:13:57;;;;;;;10.82;8.13;;;;;;;;;;5053123;28;20640;-80
2021/11/23 00:16:23;;;;;;;12.13;8.57;;;;;;;;;;5051931;28;20544;-79
2021/11/23 00:18:49;;;;;;;11.35;9.00;;;;;;;;;;5053127;28;20171;-80
2021/11/23 00:21:15;;;;;;;9.98;7.63;;;;;;;;;;5052638;28;20231;-81
2021/11/23 00:23:41;;;;;;;12.82;8.23;;;;;;;;;;5035145;28;20606;-81
2021/11/23 00:26:07;;;;;;;13.30;8.18;;;;;;;;;;5051762;28;20237;-80
2021/11/23 00:28:34;;;;;;;16.02;9.57;;;;;;;;;;5051795;28;20653;-78
2021/11/23 00:30:59;;;;;;;15.75;9.75;;;;;;;;;;5051279;28;20197;-80
2021/11/23 00:33:30;;;;;;;14.93;10.10;;;;;;;;;;5052956;28;20173;-78
2021/11/23 00:35:57;;;;;;;17.55;9.15;;;;;;;;;;5053048;28;20180;-80
2021/11/23 00:38:23;;;;;;;14.80;8.65;;;;;;;;;;5052756;28;20187;-78
2021/11/23 00:40:49;;;;;;;16.02;8.73;;;;;;;;;;5052399;28;20612;-78
2021/11/23 00:43:15;;;;;;;39.92;15.55;;;;;;;;;;5052770;28;20550;-79
2021/11/23 00:45:42;;;;;;;19.83;9.32;;;;;;;;;;5052785;28;20238;-81
2021/11/23 00:48:09;;;;;;;13.98;8.48;;;;;;;;;;5052684;28;20635;-80
2021/11/23 00:50:35;;;;;;;13.63;8.98;;;;;;;;;;5054135;28;20189;-78
2021/11/23 00:53:02;;;;;;;24.98;12.27;;;;;;;;;;5056682;28;20582;-79
2021/11/23 00:55:29;;;;;;;29.70;13.75;;;;;;;;;;5055839;28;20178;-78
2021/11/23 00:57:55;;;;;;;37.10;14.88;;;;;;;;;;5056621;28;20180;-79
2021/11/23 01:00:21;;;;;;;29.30;12.25;;;;;;;;;;5056180;28;20220;-79
2021/11/23 01:02:47;;;;;;;30.02;12.88;;;;;;;;;;5055080;28;20290;-78
2021/11/23 01:05:13;;;;;;;15.43;8.43;;;;;;;;;;5055190;28;20620;-81
2021/11/23 01:07:39;;;;;;;11.20;8.40;;;;;;;;;;5056407;28;20494;-79
2021/11/23 01:10:06;;;;;;;13.02;8.85;;;;;;;;;;5054728;28;20681;-80
2021/11/23 01:12:32;;;;;;;14.48;9.50;;;;;;;;;;5056188;28;20642;-81
2021/11/23 01:14:58;;;;;;;11.63;8.30;;;;;;;;;;5056448;28;20190;-79
2021/11/23 01:17:24;;;;;;;11.15;8.50;;;;;;;;;;5056300;28;20201;-81
2021/11/23 01:19:50;;;;;;;13.18;9.65;;;;;;;;;;5055915;28;20692;-79
2021/11/23 01:22:16;;;;;;;16.60;8.82;;;;;;;;;;5056164;28;20209;-79
2021/11/23 01:24:42;;;;;;;11.52;8.57;;;;;;;;;;5056006;28;20173;-80
2021/11/23 01:27:08;;;;;;;14.93;9.48;;;;;;;;;;5055047;28;20177;-78
2021/11/23 01:29:35;;;;;;;14.45;10.18;;;;;;;;;;5054360;28;20173;-79
2021/11/23 01:32:01;;;;;;;11.98;8.23;;;;;;;;;;5055885;28;20184;-79
2021/11/23 01:34:28;;;;;;;12.50;9.20;;;;;;;;;;5055852;28;20183;-80
2021/11/23 01:36:54;;;;;;;13.18;8.63;;;;;;;;;;5054547;28;20665;-78
2021/11/23 01:39:20;;;;;;;12.70;8.98;;;;;;;;;;5055582;28;20181;-79
2021/11/23 01:41:46;;;;;;;15.73;9.43;;;;;;;;;;5055536;28;20213;-80
2021/11/23 01:44:13;;;;;;;14.35;9.15;;;;;;;;;;5054460;28;20685;-79
2021/11/23 01:46:38;;;;;;;17.08;10.52;;;;;;;;;;5055581;28;20169;-80
2021/11/23 01:49:05;;;;;;;21.88;12.80;;;;;;;;;;5055629;28;20204;-80
2021/11/23 01:51:31;;;;;;;19.45;11.38;;;;;;;;;;5055325;28;20268;-81
2021/11/23 01:53:57;;;;;;;15.30;10.20;;;;;;;;;;5054300;28;20181;-78
2021/11/23 01:56:23;;;;;;;19.08;12.25;;;;;;;;;;5055641;28;20178;-81
2021/11/23 01:58:49;;;;;;;20.08;11.35;;;;;;;;;;5055374;28;20170;-79
2021/11/23 02:01:15;;;;;;;17.63;10.85;;;;;;;;;;5054657;28;20201;-80
2021/11/23 02:03:41;;;;;;;15.60;11.05;;;;;;;;;;5054133;28;20680;-80
2021/11/23 02:06:07;;;;;;;16.35;11.38;;;;;;;;;;5054286;28;20235;-78
2021/11/23 02:08:33;;;;;;;16.95;10.73;;;;;;;;;;5054017;28;20178;-79
2021/11/23 02:10:59;;;;;;;15.00;10.40;;;;;;;;;;5054913;28;20193;-78
2021/11/23 02:13:29;;;;;;;13.63;10.20;;;;;;;;;;5055396;28;20184;-79
2021/11/23 02:15:55;;;;;;;17.13;10.88;;;;;;;;;;5054100;28;20260;-81
2021/11/23 02:18:23;;;;;;;16.27;11.23;;;;;;;;;;5053731;28;20193;-78
2021/11/23 02:20:52;;;;;;;14.73;10.43;;;;;;;;;;5054802;28;20189;-80
2021/11/23 02:23:18;;;;;;;17.83;10.70;;;;;;;;;;5054975;28;20201;-81
2021/11/23 02:25:45;;;;;;;18.00;10.60;;;;;;;;;;5054958;28;20680;-82
2021/11/23 02:28:12;;;;;;;16.75;10.45;;;;;;;;;;5054923;28;20520;-81
2021/11/23 02:30:42;;;;;;;15.20;10.23;;;;;;;;;;5036797;28;20198;-79
2021/11/23 02:33:08;;;;;;;19.50;10.95;;;;;;;;;;5053447;28;20174;-81
2021/11/23 02:35:34;;;;;;;15.73;10.80;;;;;;;;;;5054713;28;20192;-81
2021/11/23 02:38:00;;;;;;;14.63;10.63;;;;;;;;;;5054939;28;20173;-79
2021/11/23 02:40:26;;;;;;;18.75;10.88;;;;;;;;;;5054338;28;20571;-79
2021/11/23 02:42:52;;;;;;;17.10;10.95;;;;;;;;;;5054650;28;20201;-80
2021/11/23 02:45:20;;;;;;;14.63;10.52;;;;;;;;;;5054546;28;20197;-81
2021/11/23 02:47:46;;;;;;;18.55;10.35;;;;;;;;;;5054515;28;20229;-80
2021/11/23 02:50:14;;;;;;;16.42;10.55;;;;;;;;;;5054158;28;20190;-81
2021/11/23 02:52:44;;;;;;;16.48;10.70;;;;;;;;;;5054414;28;20205;-78
2021/11/23 02:55:10;;;;;;;14.95;11.35;;;;;;;;;;5054343;28;20173;-80
2021/11/23 02:57:36;;;;;;;11.63;9.30;;;;;;;;;;5054307;28;20208;-78
2021/11/23 03:00:09;;;;;;;13.85;10.18;;;;;;;;;;5053930;28;20282;-78
2021/11/23 03:02:36;;;;;;;14.00;9.98;;;;;;;;;;5054136;28;20294;-79
2021/11/23 03:05:03;;;;;;;20.65;11.15;;;;;;;;;;5054416;28;20634;-77
2021/11/23 03:07:29;;;;;;;13.35;9.35;;;;;;;;;;5054040;28;20176;-81
2021/11/23 03:09:56;;;;;;;12.80;10.05;;;;;;;;;;5052730;28;20258;-80
2021/11/23 03:12:23;;;;;;;15.18;11.10;;;;;;;;;;5053455;28;20535;-80
2021/11/23 03:14:49;;;;;;;15.15;9.70;;;;;;;;;;5053999;28;20209;-81
2021/11/23 03:17:16;;;;;;;17.05;10.23;;;;;;;;;;5052730;28;20200;-81
2021/11/23 03:19:43;;;;;;;14.48;10.25;;;;;;;;;;5053515;28;20261;-82
2021/11/23 03:22:10;;;;;;;18.48;11.20;;;;;;;;;;5053861;28;20246;-80
2021/11/23 03:24:36;;;;;;;13.27;9.95;;;;;;;;;;5052782;28;20513;-81
2021/11/23 03:27:02;;;;;;;15.27;10.15;;;;;;;;;;5052736;28;20199;-79
2021/11/23 03:29:28;;;;;;;13.45;10.93;;;;;;;;;;5053300;28;20175;-82
2021/11/23 03:31:54;;;;;;;16.45;10.80;;;;;;;;;;5052165;28;20591;-81
2021/11/23 03:34:21;;;;;;;14.55;9.63;;;;;;;;;;5053538;28;20193;-82
2021/11/23 03:36:47;;;;;;;17.40;11.10;;;;;;;;;;5053538;28;20203;-82
2021/11/23 03:39:13;;;;;;;15.90;9.80;;;;;;;;;;5053159;28;20257;-81
2021/11/23 03:41:39;;;;;;;16.77;10.23;;;;;;;;;;5053114;28;20289;-80
2021/11/23 03:44:06;;;;;;;15.70;10.75;;;;;;;;;;5053427;28;20219;-80
2021/11/23 03:46:32;;;;;;;13.65;10.52;;;;;;;;;;5052069;28;20174;-80
2021/11/23 03:48:58;;;;;;;18.98;11.13;;;;;;;;;;5052068;28;20207;-78
2021/11/23 03:51:24;;;;;;;17.13;11.45;;;;;;;;;;5053169;28;20581;-80
2021/11/23 03:53:50;;;;;;;17.80;11.02;;;;;;;;;;5053241;28;20185;-81
2021/11/23 03:56:16;;;;;;;17.27;10.55;;;;;;;;;;5053449;28;20176;-81
2021/11/23 03:58:43;;;;;;;17.00;11.45;;;;;;;;;;5053303;28;20213;-81
2021/11/23 04:01:09;;;;;;;15.25;10.05;;;;;;;;;;5051550;28;20247;-79
2021/11/23 04:03:35;;;;;;;18.23;10.95;;;;;;;;;;5051990;28;20213;-81
2021/11/23 04:06:02;;;;;;;17.70;10.68;;;;;;;;;;5053171;28;20174;-81
2021/11/23 04:08:28;;;;;;;12.35;9.38;;;;;;;;;;5053154;28;20263;-81
2021/11/23 04:10:58;;;;;;;14.43;11.10;;;;;;;;;;5051494;28;20196;-80
2021/11/23 04:13:24;;;;;;;15.40;11.52;;;;;;;;;;5053515;28;20210;-81
2021/11/23 04:15:51;;;;;;;18.75;12.30;;;;;;;;;;5053223;28;20189;-79
2021/11/23 04:18:17;;;;;;;19.83;11.88;;;;;;;;;;5053025;28;20196;-82
2021/11/23 04:20:43;;;;;;;16.30;10.93;;;;;;;;;;5052680;28;20203;-80
2021/11/23 04:23:09;;;;;;;18.20;10.93;;;;;;;;;;5052967;28;20205;-78
2021/11/23 04:25:35;;;;;;;17.52;11.68;;;;;;;;;;5059220;28;20181;-82
2021/11/23 04:28:01;;;;;;;17.83;11.93;;;;;;;;;;5059624;28;20171;-80
2021/11/23 04:30:27;;;;;;;16.75;11.52;;;;;;;;;;5059098;28;20606;-81
2021/11/23 04:32:53;;;;;;;19.23;11.75;;;;;;;;;;5059664;28;20210;-80
2021/11/23 04:35:19;;;;;;;22.75;13.13;;;;;;;;;;5059597;28;20227;-79
2021/11/23 04:37:46;;;;;;;17.58;12.00;;;;;;;;;;5059640;28;20190;-79
2021/11/23 04:40:13;;;;;;;19.73;12.05;;;;;;;;;;5058921;28;20234;-79
2021/11/23 04:42:40;;;;;;;19.88;12.23;;;;;;;;;;5059428;28;20200;-80
2021/11/23 04:45:07;;;;;;;17.75;11.85;;;;;;;;;;5058232;28;20177;-81
2021/11/23 04:47:33;;;;;;;14.13;11.48;;;;;;;;;;5058122;28;20173;-78
2021/11/23 04:49:59;;;;;;;13.82;10.57;;;;;;;;;;5059038;28;20197;-79
2021/11/23 04:52:25;;;;;;;20.73;13.00;;;;;;;;;;5059420;28;20168;-82
2021/11/23 04:54:51;;;;;;;26.08;14.00;;;;;;;;;;5059532;28;20205;-81
2021/11/23 04:57:18;;;;;;;20.25;13.68;;;;;;;;;;5059420;28;20647;-81
2021/11/23 04:59:44;;;;;;;20.55;13.15;;;;;;;;;;5057715;28;20183;-79
2021/11/23 05:02:10;;;;;;;16.75;10.65;;;;;;;;;;5059205;28;20753;-81
2021/11/23 05:04:36;;;;;;;16.08;11.65;;;;;;;;;;5058248;28;20177;-80
2021/11/23 05:07:02;;;;;;;18.33;13.25;;;;;;;;;;5059404;28;20238;-81
2021/11/23 05:09:28;;;;;;;18.13;11.07;;;;;;;;;;5059087;28;20585;-80
2021/11/23 05:11:54;;;;;;;20.88;12.00;;;;;;;;;;5059339;28;20239;-79
2021/11/23 05:14:22;;;;;;;16.90;12.23;;;;;;;;;;5058080;28;20571;-81
2021/11/23 05:16:49;;;;;;;20.17;12.02;;;;;;;;;;5059103;28;20378;-79
2021/11/23 05:19:15;;;;;;;22.50;13.38;;;;;;;;;;5058928;28;20259;-81
2021/11/23 05:21:41;;;;;;;19.20;12.65;;;;;;;;;;5059027;28;20609;-79
2021/11/23 05:24:09;;;;;;;21.00;13.40;;;;;;;;;;5059120;28;20524;-82
2021/11/23 05:26:35;;;;;;;20.05;12.82;;;;;;;;;;5059025;28;20642;-82
2021/11/23 05:29:01;;;;;;;19.80;13.40;;;;;;;;;;5059346;28;20182;-81
2021/11/23 05:31:27;;;;;;;19.75;12.85;;;;;;;;;;5040691;28;20201;-81
2021/11/23 05:33:53;;;;;;;25.30;15.00;;;;;;;;;;5058984;28;20180;-82
2021/11/23 05:36:19;;;;;;;20.92;13.63;;;;;;;;;;5056220;28;20181;-80
2021/11/23 05:38:45;;;;;;;26.55;15.45;;;;;;;;;;5055828;28;20269;-79
2021/11/23 05:41:11;;;;;;;23.90;15.93;;;;;;;;;;5055529;28;20189;-81
2021/11/23 05:43:37;;;;;;;24.10;15.05;;;;;;;;;;5055638;28;20661;-81
2021/11/23 05:46:03;;;;;;;25.52;13.68;;;;;;;;;;5055625;28;20173;-82
2021/11/23 05:48:29;;;;;;;19.75;13.40;;;;;;;;;;5055557;28;20585;-79
2021/11/23 05:50:55;;;;;;;23.15;13.82;;;;;;;;;;5055299;28;20195;-81
2021/11/23 05:53:21;;;;;;;20.45;14.43;;;;;;;;;;5054241;28;20641;-79
2021/11/23 05:55:47;;;;;;;27.02;13.63;;;;;;;;;;5055587;28;20177;-78
2021/11/23 05:58:13;;;;;;;27.50;13.27;;;;;;;;;;5054293;28;20228;-81
2021/11/23 06:00:39;;;;;;;21.00;13.68;;;;;;;;;;5053912;28;20197;-82
2021/11/23 06:03:05;;;;;;;21.10;13.77;;;;;;;;;;5054311;28;20216;-81
2021/11/23 06:05:31;;;;;;;21.20;14.30;;;;;;;;;;5055355;28;20173;-80
2021/11/23 06:07:57;;;;;;;25.67;15.50;;;;;;;;;;5055647;28;20541;-82
2021/11/23 06:10:23;;;;;;;24.48;15.68;;;;;;;;;;5054931;28;20197;-80
2021/11/23 06:12:49;;;;;;;26.75;15.13;;;;;;;;;;5053753;28;20193;-80
2021/11/23 06:15:17;;;;;;;26.83;15.65;;;;;;;;;;5054036;28;20185;-80
2021/11/23 06:17:43;;;;;;;27.48;15.65;;;;;;;;;;5055087;28;20199;-82
2021/11/23 06:20:10;;;;;;;25.02;15.75;;;;;;;;;;5054841;28;20225;-81
2021/11/23 06:22:36;;;;;;;19.67;14.13;;;;;;;;;;5055179;28;20217;-80
2021/11/23 06:25:02;;;;;;;26.80;15.82;;;;;;;;;;5053739;28;20583;-81
2021/11/23 06:27:29;;;;;;;27.83;19.60;;;;;;;;;;5053656;28;20264;-80
2021/11/23 06:29:55;;;;;;;29.15;18.85;;;;;;;;;;5053410;28;20239;-80
2021/11/23 06:32:21;;;;;;;25.73;15.38;;;;;;;;;;5053713;28;20231;-81
2021/11/23 06:34:47;;;;;;;23.42;16.02;;;;;;;;;;5053440;28;20173;-80
2021/11/23 06:37:13;;;;;;;27.17;17.13;;;;;;;;;;5054779;28;20183;-80
2021/11/23 06:39:39;;;;;;;27.75;15.93;;;;;;;;;;5053006;28;20188;-81
2021/11/23 06:42:08;;;;;;;25.60;14.90;;;;;;;;;;5053425;28;20671;-80
2021/11/23 06:44:34;;;;;;;27.15;16.10;;;;;;;;;;5054817;28;20242;-80
2021/11/23 06:47:00;;;;;;;26.58;15.75;;;;;;;;;;5053722;28;20209;-81
2021/11/23 06:49:26;;;;;;;26.92;15.30;;;;;;;;;;5053648;28;20184;-80
2021/11/23 06:51:52;;;;;;;23.90;16.57;;;;;;;;;;5054217;28;20328;-79
2021/11/23 06:54:18;;;;;;;25.50;17.00;;;;;;;;;;5036802;28;20412;-81
2021/11/23 06:56:44;;;;;;;28.05;16.90;;;;;;;;;;5054365;28;20178;-82
2021/11/23 06:59:11;;;;;;;27.95;16.95;;;;;;;;;;5054357;28;20181;-80
2021/11/23 07:01:37;;;;;;;26.15;16.50;;;;;;;;;;5054156;28;20189;-79
2021/11/23 07:04:03;;;;;;;24.17;16.58;;;;;;;;;;5053052;28;20179;-80
2021/11/23 07:06:29;;;;;;;26.77;17.35;;;;;;;;;;5053163;28;20205;-81
2021/11/23 07:08:54;;;;;;;26.35;17.70;;;;;;;;;;5054318;28;20166;-81
2021/11/23 07:11:20;;;;;;;32.73;16.60;;;;;;;;;;5052500;28;20189;-83
2021/11/23 07:13:46;;;;;;;23.20;16.70;;;;;;;;;;5053153;28;20429;-80
2021/11/23 07:16:12;;;;;;;24.63;16.25;;;;;;;;;;5036405;28;20419;-83
2021/11/23 07:18:38;;;;;;;33.00;18.15;;;;;;;;;;5052821;28;20177;-80
2021/11/23 07:21:04;;;;;;;27.90;16.17;;;;;;;;;;5053656;28;20195;-79
2021/11/23 07:23:30;;;;;;;23.90;15.80;;;;;;;;;;5053529;28;20583;-82
2021/11/23 07:25:56;;;;;;;27.17;15.77;;;;;;;;;;5036149;28;20432;-80
2021/11/23 07:28:22;;;;;;;31.35;16.67;;;;;;;;;;5052575;28;20173;-81
2021/11/23 07:30:48;;;;;;;31.13;16.67;;;;;;;;;;5053428;28;20239;-82
2021/11/23 07:33:14;;;;;;;23.45;14.95;;;;;;;;;;5052621;28;20638;-80
2021/11/23 07:35:40;;;;;;;22.20;14.50;;;;;;;;;;5053751;28;20574;-80
2021/11/23 07:38:07;;;;;;;29.33;15.65;;;;;;;;;;5053677;28;20528;-83
2021/11/23 07:40:33;;;;;;;25.67;15.98;;;;;;;;;;5053192;28;20209;-81
2021/11/23 07:42:59;;;;;;;20.60;14.07;;;;;;;;;;5053484;28;20256;-80
2021/11/23 07:45:25;;;;;;;24.25;14.05;;;;;;;;;;5035544;28;20646;-80
2021/11/23 07:47:51;;;;;;;24.77;14.60;;;;;;;;;;5051971;28;20189;-80
2021/11/23 07:50:17;;;;;;;24.20;15.65;;;;;;;;;;5035398;28;20190;-81
2021/11/23 07:52:43;;;;;;;25.63;15.25;;;;;;;;;;5053214;28;20255;-82
2021/11/23 07:55:12;;;;;;;23.70;15.15;;;;;;;;;;5053458;28;20179;-83
2021/11/23 07:57:39;;;;;;;27.25;15.75;;;;;;;;;;5053240;28;20228;-81
2021/11/23 08:00:11;;;;;;;28.60;15.82;;;;;;;;;;5051495;28;20289;-82
2021/11/23 08:02:37;;;;;;;25.25;16.92;;;;;;;;;;5051987;28;20293;-81
2021/11/23 08:05:03;;;;;;;30.45;17.42;;;;;;;;;;5053226;28;20199;-82
2021/11/23 08:07:30;;;;;;;26.50;15.50;;;;;;;;;;5053227;28;20186;-81
2021/11/23 08:09:56;;;;;;;27.02;17.88;;;;;;;;;;5052977;28;20204;-82
2021/11/23 08:12:22;;;;;;;25.65;15.68;;;;;;;;;;5053159;28;20180;-80
2021/11/23 08:14:48;;;;;;;27.73;16.15;;;;;;;;;;5053251;28;20577;-82
2021/11/23 08:17:14;;;;;;;23.05;15.70;;;;;;;;;;5051886;28;20203;-82
2021/11/23 08:19:40;;;;;;;24.52;16.17;;;;;;;;;;5051441;28;20192;-83
2021/11/23 08:22:06;;;;;;;26.47;17.40;;;;;;;;;;5051807;28;20574;-81
2021/11/23 08:24:32;;;;;;;28.33;16.98;;;;;;;;;;5053369;28;20402;-82
2021/11/23 08:26:59;;;;;;;25.38;16.58;;;;;;;;;;5052162;28;20199;-80
2021/11/23 08:29:25;;;;;;;28.65;16.55;;;;;;;;;;5052844;28;20175;-81
2021/11/23 08:31:53;;;;;;;25.80;16.67;;;;;;;;;;5053147;28;20190;-82
2021/11/23 08:34:21;;;;;;;23.42;15.32;;;;;;;;;;5051883;28;20195;-80
2021/11/23 08:36:49;;;;;;;22.67;14.93;;;;;;;;;;5053126;28;20164;-81
2021/11/23 08:39:15;;;;;;;23.27;16.13;;;;;;;;;;5051530;28;20578;-82
2021/11/23 08:41:43;;;;;;;25.65;16.20;;;;;;;;;;5051481;28;20258;-83
2021/11/23 08:44:09;;;;;;;24.00;15.65;;;;;;;;;;5052930;28;20178;-81
2021/11/23 08:46:35;;;;;;;23.30;15.68;;;;;;;;;;5052873;28;20169;-80
2021/11/23 08:49:02;;;;;;;24.52;16.02;;;;;;;;;;5051856;28;20538;-81
2021/11/23 08:51:31;;;;;;;24.98;14.93;;;;;;;;;;5052401;28;20201;-82
2021/11/23 08:53:57;;;;;;;23.10;15.10;;;;;;;;;;5052659;28;20184;-82
2021/11/23 08:56:23;;;;;;;29.30;14.67;;;;;;;;;;5052802;28;20660;-80
2021/11/23 08:58:50;;;;;;;19.52;13.73;;;;;;;;;;5052644;28;20949;-79
2021/11/23 09:01:20;;;;;;;20.45;14.38;;;;;;;;;;5052498;28;20212;-80
2021/11/23 09:03:46;;;;;;;22.60;16.02;;;;;;;;;;5052471;28;20204;-82
2021/11/23 09:06:12;;;;;;;24.63;15.77;;;;;;;;;;5052663;28;20247;-80
2021/11/23 09:08:46;;;;;;;22.65;14.93;;;;;;;;;;5051319;28;20548;-79
2021/11/23 09:11:12;;;;;;;22.10;14.40;;;;;;;;;;5053802;28;20548;-82
2021/11/23 09:13:38;;;;;;;27.40;15.35;;;;;;;;;;5056704;28;20180;-80
2021/11/23 09:16:04;;;;;;;24.67;15.52;;;;;;;;;;5056399;28;20187;-81
2021/11/23 09:18:30;;;;;;;28.92;15.60;;;;;;;;;;5056597;28;20180;-80
2021/11/23 09:20:56;;;;;;;24.05;16.25;;;;;;;;;;5055896;28;20189;-80
2021/11/23 09:23:22;;;;;;;21.30;15.05;;;;;;;;;;5054972;28;20209;-81
2021/11/23 09:25:48;;;;;;;24.77;16.38;;;;;;;;;;5055141;28;20223;-81
2021/11/23 09:28:15;;;;;;;22.23;15.07;;;;;;;;;;5054815;28;20243;-79
2021/11/23 09:30:41;;;;;;;23.95;14.63;;;;;;;;;;5055866;28;20571;-80
2021/11/23 09:33:07;;;;;;;25.83;15.00;;;;;;;;;;5038442;28;20213;-81
2021/11/23 09:35:33;;;;;;;22.17;14.93;;;;;;;;;;5054793;28;20174;-81
2021/11/23 09:38:00;;;;;;;21.70;14.60;;;;;;;;;;5056073;28;20219;-81
2021/11/23 09:40:26;;;;;;;18.40;13.00;;;;;;;;;;5054233;28;20255;-80
2021/11/23 09:42:53;;;;;;;18.80;13.48;;;;;;;;;;5054565;28;20209;-79
2021/11/23 09:45:19;;;;;;;22.70;14.50;;;;;;;;;;5055617;28;20189;-80
2021/11/23 09:47:46;;;;;;;23.23;15.43;;;;;;;;;;5054439;28;20203;-81
2021/11/23 09:50:12;;;;;;;19.25;13.55;;;;;;;;;;5055340;28;20559;-79
2021/11/23 09:52:40;;;;;;;21.63;14.30;;;;;;;;;;5054379;28;20193;-81
2021/11/23 09:55:07;;;;;;;23.38;15.60;;;;;;;;;;5054324;28;20185;-80
2021/11/23 09:57:33;;;;;;;19.83;13.73;;;;;;;;;;5055477;28;20186;-76
2021/11/23 10:00:00;;;;;;;18.85;13.75;;;;;;;;;;5053805;28;20225;-81
2021/11/23 10:02:28;;;;;;;20.60;13.68;;;;;;;;;;5055507;28;20201;-80
2021/11/23 10:05:02;;;;;;;19.55;13.95;;;;;;;;;;5055498;28;20219;-81
2021/11/23 10:07:39;;;;;;;23.27;13.50;;;;;;;;;;5055300;28;20461;-77
2021/11/23 10:10:17;;;;;;;19.45;13.50;;;;;;;;;;5054959;28;20219;-79
2021/11/23 10:12:51;;;;;;;18.58;12.40;;;;;;;;;;5055366;28;20603;-81
2021/11/23 10:15:19;;;;;;;20.70;13.27;;;;;;;;;;5055321;28;20642;-79
2021/11/23 10:17:48;;;;;;;21.27;14.50;;;;;;;;;;5053924;28;20192;-81
2021/11/23 10:20:27;;;;;;;19.80;13.50;;;;;;;;;;5054886;28;20197;-80
2021/11/23 10:22:54;;;;;;;18.92;13.07;;;;;;;;;;5054603;28;20683;-80
2021/11/23 10:25:20;;;;;;;21.05;13.68;;;;;;;;;;5055004;28;20197;-81
2021/11/23 10:27:46;;;;;;;26.35;14.90;;;;;;;;;;5053828;28;20183;-80
2021/11/23 10:30:12;;;;;;;20.03;13.80;;;;;;;;;;5054638;28;20532;-80
2021/11/23 10:32:46;;;;;;;23.52;15.18;;;;;;;;;;5055009;28;20419;-81
2021/11/23 10:35:12;;;;;;;20.00;13.73;;;;;;;;;;5053608;28;20190;-79
2021/11/23 10:37:39;;;;;;;18.58;12.80;;;;;;;;;;5054822;28;20174;-82
2021/11/23 10:40:10;;;;;;;17.70;13.18;;;;;;;;;;5054319;28;20195;-79
2021/11/23 10:42:36;;;;;;;18.05;12.13;;;;;;;;;;5053310;28;20199;-82
2021/11/23 10:45:06;;;;;;;18.90;13.45;;;;;;;;;;5054343;28;20172;-80
2021/11/23 10:47:35;;;;;;;18.65;13.55;;;;;;;;;;5053499;28;20178;-81
2021/11/23 10:50:06;;;;;;;20.35;14.43;;;;;;;;;;5053939;28;20732;-80
2021/11/23 10:52:35;;;;;;;17.92;13.00;;;;;;;;;;5054369;28;20174;-81
2021/11/23 10:55:01;;;;;;;19.35;13.57;;;;;;;;;;5054053;28;20173;-81
2021/11/23 10:57:27;;;;;;;18.65;13.40;;;;;;;;;;5053067;28;20261;-79
2021/11/23 10:59:53;;;;;;;23.13;12.23;;;;;;;;;;5052741;28;20234;-81
2021/11/23 11:02:20;;;;;;;21.30;13.70;;;;;;;;;;5053061;28;20669;-80
2021/11/23 11:04:50;;;;;;;21.83;12.82;;;;;;;;;;5052926;28;20920;-80
2021/11/23 11:07:20;;;;;;;20.27;13.65;;;;;;;;;;5054080;28;20165;-82
2021/11/23 11:09:46;;;;;;;20.77;14.38;;;;;;;;;;5052444;28;20683;-82
2021/11/23 11:12:12;;;;;;;25.85;13.73;;;;;;;;;;5052806;28;20181;-80
2021/11/23 11:14:39;;;;;;;19.10;12.50;;;;;;;;;;5052984;28;20227;-79
2021/11/23 11:17:05;;;;;;;23.17;14.55;;;;;;;;;;5053777;28;20438;-83
2021/11/23 11:20:01;;;;;;;20.58;12.45;;;;;;;;;;5052773;28;20236;-80
2021/11/23 11:22:28;;;;;;;23.05;14.10;;;;;;;;;;5050711;28;20697;-80
2021/11/23 11:25:24;;;;;;;24.42;14.75;;;;;;;;;;5055753;28;20166;-79
2021/11/23 11:27:46;;;;;;;19.55;13.85;;;;;;;;;;5053601;28;20220;-81
2021/11/23 11:30:28;;;;;;;23.70;14.88;;;;;;;;;;5051997;28;20540;-81
2021/11/23 11:33:06;;;;;;;21.05;14.55;;;;;;;;;;5053682;28;20177;-80
2021/11/23 11:35:37;;;;;;;24.60;17.90;;;;;;;;;;5053355;28;20177;-82
2021/11/23 11:38:04;;;;;;;25.92;15.00;;;;;;;;;;5053931;28;20199;-81
2021/11/23 11:40:32;;;;;;;22.77;15.20;;;;;;;;;;5051956;28;20201;-79
2021/11/23 11:43:02;;;;;;;26.98;15.35;;;;;;;;;;5053548;28;20236;-82
2021/11/23 11:45:49;;;;;;;29.50;15.43;;;;;;;;;;5053470;28;20166;-81
2021/11/23 11:48:24;;;;;;;27.33;16.05;;;;;;;;;;5053479;28;20173;-81
2021/11/23 11:51:09;;;;;;;31.45;17.52;;;;;;;;;;5053108;28;20193;-80
2021/11/23 11:53:39;;;;;;;26.77;15.80;;;;;;;;;;5053547;28;20210;-81
2021/11/23 11:56:05;;;;;;;25.42;14.77;;;;;;;;;;5052087;28;20177;-81
2021/11/23 11:59:00;;;;;;;28.15;18.52;;;;;;;;;;5052054;28;20276;-80
2021/11/23 12:01:28;;;;;;;24.83;16.23;;;;;;;;;;5052842;28;20214;-79
2021/11/23 12:04:03;;;;;;;26.15;16.20;;;;;;;;;;5053093;28;20197;-80
2021/11/23 12:07:08;;;;;;;30.90;17.42;;;;;;;;;;5052441;28;20202;-81
2021/11/23 12:09:37;;;;;;;26.75;17.42;;;;;;;;;;5041873;28;20656;-81
2021/11/23 12:12:12;;;;;;;29.55;17.55;;;;;;;;;;5053370;28;20651;-80
2021/11/23 12:14:49;;;;;;;28.17;18.52;;;;;;;;;;5051842;28;20212;-81
2021/11/23 12:17:23;;;;;;;27.13;19.17;;;;;;;;;;5052960;28;20283;-79
2021/11/23 12:20:07;;;;;;;28.58;20.15;;;;;;;;;;5052775;28;20184;-79
2021/11/23 12:22:41;;;;;;;31.17;18.85;;;;;;;;;;5052981;28;20361;-79
2021/11/23 12:25:10;;;;;;;26.05;17.42;;;;;;;;;;5053078;28;20178;-82
2021/11/23 12:27:36;;;;;;;29.30;18.58;;;;;;;;;;5052956;28;20621;-82
2021/11/23 12:30:03;;;;;;;41.22;18.85;;;;;;;;;;5052562;28;20189;-81
2021/11/23 12:32:34;;;;;;;30.65;19.52;;;;;;;;;;5053176;28;20173;-81
2021/11/23 12:35:00;;;;;;;28.08;18.08;;;;;;;;;;5053191;28;20251;-80
2021/11/23 12:37:37;;;;;;;25.23;17.38;;;;;;;;;;5051815;28;20610;-79
2021/11/23 12:40:13;;;;;;;28.55;19.00;;;;;;;;;;5051302;28;20210;-80
2021/11/23 12:42:51;;;;;;;37.70;19.33;;;;;;;;;;5051735;28;20200;-79
2021/11/23 12:45:18;;;;;;;30.02;19.10;;;;;;;;;;5054356;28;20224;-80
2021/11/23 12:47:47;;;;;;;39.08;19.63;;;;;;;;;;5055373;28;20177;-82
2021/11/23 12:50:13;;;;;;;31.48;17.13;;;;;;;;;;5056470;28;20189;-80
2021/11/23 12:52:39;;;;;;;29.95;17.38;;;;;;;;;;5056730;28;20198;-82
2021/11/23 12:55:05;;;;;;;28.03;16.37;;;;;;;;;;5055502;28;20196;-81
2021/11/23 12:57:31;;;;;;;33.05;19.00;;;;;;;;;;5056811;28;20405;-83
2021/11/23 12:59:59;;;;;;;36.28;19.23;;;;;;;;;;5054934;28;20690;-80
2021/11/23 13:02:33;;;;;;;28.52;17.35;;;;;;;;;;5056605;28;20305;-80
2021/11/23 13:05:12;;;;;;;30.83;18.88;;;;;;;;;;5056487;28;20577;-82
2021/11/23 13:07:40;;;;;;;34.13;19.50;;;;;;;;;;5055273;28;20177;-81
2021/11/23 13:10:07;;;;;;;29.90;16.52;;;;;;;;;;5056026;28;20192;-81
2021/11/23 13:12:38;;;;;;;27.73;16.30;;;;;;;;;;5055141;28;20300;-80
2021/11/23 13:15:06;;;;;;;30.17;17.35;;;;;;;;;;5056245;28;20180;-81
2021/11/23 13:17:39;;;;;;;29.85;18.27;;;;;;;;;;5056205;28;20192;-81
2021/11/23 13:20:10;;;;;;;28.15;16.15;;;;;;;;;;5054468;28;20205;-81
2021/11/23 13:22:43;;;;;;;28.02;16.48;;;;;;;;;;5056438;28;20227;-80
2021/11/23 13:25:10;;;;;;;26.77;16.05;;;;;;;;;;5056346;28;20178;-81
2021/11/23 13:27:38;;;;;;;31.90;17.00;;;;;;;;;;5054828;28;20173;-80
2021/11/23 13:30:22;;;;;;;33.35;18.73;;;;;;;;;;5054237;28;20193;-81
2021/11/23 13:32:48;;;;;;;25.38;16.02;;;;;;;;;;5056146;28;20180;-81
2021/11/23 13:35:14;;;;;;;35.93;18.30;;;;;;;;;;5038301;28;20215;-80
2021/11/23 13:37:41;;;;;;;33.38;17.58;;;;;;;;;;5055928;28;20421;-79
2021/11/23 13:40:17;;;;;;;26.40;17.88;;;;;;;;;;5055301;28;20190;-82
2021/11/23 13:42:43;;;;;;;33.55;18.63;;;;;;;;;;5055741;28;20272;-83
2021/11/23 13:45:13;;;;;;;29.10;18.40;;;;;;;;;;5054556;28;20263;-79
2021/11/23 13:47:39;;;;;;;28.88;17.63;;;;;;;;;;5055692;28;20408;-81
2021/11/23 13:50:06;;;;;;;25.95;16.77;;;;;;;;;;5055167;28;20198;-80
2021/11/23 13:52:35;;;;;;;33.42;18.70;;;;;;;;;;5054421;28;20182;-83
2021/11/23 13:55:02;;;;;;;29.50;16.90;;;;;;;;;;5055634;28;20586;-81
2021/11/23 13:57:29;;;;;;;39.85;21.83;;;;;;;;;;5053665;28;20598;-79
2021/11/23 13:59:57;;;;;;;35.38;19.42;;;;;;;;;;5053827;28;20197;-79
2021/11/23 14:02:41;;;;;;;37.70;19.70;;;;;;;;;;5053974;28;20621;-81
2021/11/23 14:05:08;;;;;;;43.15;19.30;;;;;;;;;;5054144;28;20181;-79
2021/11/23 14:07:54;;;;;;;38.08;21.45;;;;;;;;;;5055418;28;20177;-81
2021/11/23 14:10:27;;;;;;;35.42;19.77;;;;;;;;;;5053657;28;20201;-80
2021/11/23 14:12:59;;;;;;;31.10;19.33;;;;;;;;;;5054226;28;20179;-80
2021/11/23 14:15:25;;;;;;;36.00;20.33;;;;;;;;;;5055520;28;20200;-80
2021/11/23 14:17:56;;;;;;;42.20;22.02;;;;;;;;;;5055333;28;20186;-81
2021/11/23 14:20:22;;;;;;;37.05;22.40;;;;;;;;;;5053412;28;20197;-81
2021/11/23 14:22:48;;;;;;;42.20;22.67;;;;;;;;;;5053844;28;20270;-80